Time;durP1;ratioP1;P1;durP2;ratioP2;P2;SDS_P1;SDS_P2;PMS_P1;PMS_P2;Temp;Humidity;BMP_temperature;BMP_pressure;BME280_temperature;BME280_humidity;BME280_pressure;Samples;Min_cycle;Max_cycle;Signal;HPM_P1;HPM_P2
2022/10/05 00:00:21;;;;;;;11.10;9.02;;;15.60;99.90;;;;;;5008284;28;20053;-77
2022/10/05 00:02:52;;;;;;;13.05;8.55;;;15.50;99.90;;;;;;5021116;28;20076;-76
2022/10/05 00:05:32;;;;;;;12.32;7.72;;;15.60;99.90;;;;;;5006194;28;20093;-76
2022/10/05 00:08:16;;;;;;;9.77;7.97;;;15.50;99.90;;;;;;5008710;28;20053;-76
2022/10/05 00:10:44;;;;;;;10.95;8.07;;;15.50;99.90;;;;;;5023459;28;20382;-76
2022/10/05 00:13:25;;;;;;;10.02;7.68;;;15.60;99.90;;;;;;5004634;28;20049;-76
2022/10/05 00:15:56;;;;;;;10.50;7.50;;;15.50;99.90;;;;;;5019660;28;20096;-76
2022/10/05 00:18:22;;;;;;;9.70;7.25;;;15.50;99.90;;;;;;5003844;28;20061;-76
2022/10/05 00:20:48;;;;;;;11.68;7.85;;;15.50;99.90;;;;;;5025005;28;20043;-76
2022/10/05 00:23:43;;;;;;;11.98;8.27;;;15.50;99.90;;;;;;5028148;28;20079;-75
2022/10/05 00:26:21;;;;;;;10.07;7.75;;;15.50;99.90;;;;;;5002552;28;20060;-76
2022/10/05 00:28:47;;;;;;;10.80;8.23;;;15.50;99.90;;;;;;5026056;28;20075;-76
2022/10/05 00:31:20;;;;;;;11.23;8.60;;;15.50;99.90;;;;;;5004995;28;20045;-77
2022/10/05 00:33:46;;;;;;;10.10;8.18;;;15.50;99.90;;;;;;5020377;28;20058;-76
2022/10/05 00:36:12;;;;;;;9.27;7.38;;;15.50;99.90;;;;;;5025848;28;20116;-76
2022/10/05 00:38:38;;;;;;;11.20;7.70;;;15.50;99.90;;;;;;5023851;28;20462;-76
2022/10/05 00:41:16;;;;;;;10.30;7.55;;;15.50;99.90;;;;;;5018713;28;20048;-75
2022/10/05 00:44:00;;;;;;;11.88;7.63;;;15.50;99.90;;;;;;5027046;28;20037;-76
2022/10/05 00:46:53;;;;;;;12.68;7.78;;;15.50;99.90;;;;;;5001850;28;20049;-77
2022/10/05 00:49:54;;;;;;;12.30;8.02;;;15.50;99.90;;;;;;5027354;28;20128;-76
2022/10/05 00:52:44;;;;;;;11.52;8.20;;;15.50;99.90;;;;;;5006422;28;20049;-76
2022/10/05 00:55:43;;;;;;;12.18;8.18;;;15.50;99.90;;;;;;5022295;28;20037;-75
2022/10/05 00:58:43;;;;;;;12.95;8.63;;;15.50;99.90;;;;;;4991527;28;20142;-76
2022/10/05 01:01:16;;;;;;;11.80;8.55;;;15.50;99.90;;;;;;5006667;28;20570;-76
2022/10/05 01:03:48;;;;;;;13.35;8.60;;;15.40;99.90;;;;;;5019010;28;20412;-76
2022/10/05 01:06:21;;;;;;;10.25;8.55;;;15.40;99.90;;;;;;5016764;28;20476;-76
2022/10/05 01:09:16;;;;;;;13.73;9.55;;;15.40;99.90;;;;;;5026351;28;20132;-76
2022/10/05 01:11:57;;;;;;;13.77;9.35;;;15.40;99.90;;;;;;5005516;28;20072;-74
2022/10/05 01:14:52;;;;;;;13.77;9.73;;;15.50;99.90;;;;;;5007408;28;20057;-76
2022/10/05 01:17:44;;;;;;;14.48;9.65;;;15.50;99.90;;;;;;5002367;28;20049;-77
2022/10/05 01:20:33;;;;;;;13.32;9.25;;;15.50;99.90;;;;;;5018899;28;20054;-77
2022/10/05 01:23:37;;;;;;;12.18;10.25;;;15.40;99.90;;;;;;4953000;28;20481;-77
2022/10/05 01:26:21;;;;;;;12.80;9.90;;;15.40;99.90;;;;;;5000829;28;20072;-76
2022/10/05 01:28:54;;;;;;;14.02;10.07;;;15.40;99.90;;;;;;5002836;28;20129;-76
2022/10/05 01:31:27;;;;;;;16.27;10.18;;;15.40;99.90;;;;;;5002088;28;20052;-76
2022/10/05 01:34:14;;;;;;;14.45;11.30;;;15.40;99.90;;;;;;5025471;28;20074;-76
2022/10/05 01:36:44;;;;;;;14.48;9.90;;;15.40;99.90;;;;;;5006281;28;20053;-76
2022/10/05 01:39:50;;;;;;;15.95;10.80;;;15.40;99.90;;;;;;5022733;28;20053;-76
2022/10/05 01:42:30;;;;;;;;;;;15.40;99.90;;;;;;4997018;28;20062;-76
2022/10/05 01:45:21;;;;;;;14.57;10.70;;;15.30;99.90;;;;;;5026696;28;20242;-76
2022/10/05 01:47:58;;;;;;;14.30;10.38;;;15.30;99.90;;;;;;5026894;28;20740;-76
2022/10/05 01:50:45;;;;;;;16.13;10.52;;;15.30;99.90;;;;;;5027375;28;20052;-76
2022/10/05 01:53:47;;;;;;;15.93;11.32;;;15.30;99.90;;;;;;5007640;28;20136;-76
2022/10/05 01:56:19;;;;;;;13.35;10.38;;;15.30;99.90;;;;;;4997423;28;20049;-76
2022/10/05 01:59:03;;;;;;;17.42;10.65;;;15.30;99.90;;;;;;5010214;28;20505;-76
2022/10/05 02:01:48;;;;;;;14.55;10.90;;;15.30;99.90;;;;;;5025371;28;20496;-76
2022/10/05 02:04:32;;;;;;;13.30;10.27;;;15.30;99.90;;;;;;5025890;28;20049;-76
2022/10/05 02:07:02;;;;;;;13.15;10.38;;;15.30;99.90;;;;;;5011462;28;20496;-76
2022/10/05 02:09:32;;;;;;;13.35;10.45;;;15.30;99.90;;;;;;5028392;28;20438;-76
2022/10/05 02:12:04;;;;;;;13.50;9.65;;;15.30;99.90;;;;;;5020324;28;20540;-76
2022/10/05 02:14:38;;;;;;;14.77;10.40;;;15.30;99.90;;;;;;5025637;28;20403;-76
2022/10/05 02:17:12;;;;;;;12.38;9.80;;;15.30;99.90;;;;;;5024669;28;20052;-74
2022/10/05 02:19:47;;;;;;;14.07;10.02;;;15.30;99.90;;;;;;5013087;28;20105;-76
2022/10/05 02:22:34;;;;;;;13.77;9.65;;;15.30;99.90;;;;;;5008443;28;20120;-76
2022/10/05 02:25:08;;;;;;;15.32;10.13;;;15.30;99.90;;;;;;5025643;28;20037;-76
2022/10/05 02:27:58;;;;;;;12.38;9.95;;;15.20;99.90;;;;;;5020144;28;20073;-76
2022/10/05 02:30:24;;;;;;;13.75;9.98;;;15.20;99.90;;;;;;5010106;28;20049;-77
2022/10/05 02:32:57;;;;;;;14.45;10.25;;;15.20;99.90;;;;;;5026842;28;20072;-76
2022/10/05 02:35:22;;;;;;;12.23;10.13;;;15.20;99.90;;;;;;5025490;28;20046;-75
2022/10/05 02:38:03;;;;;;;14.27;9.82;;;15.20;99.90;;;;;;5030213;28;20099;-77
2022/10/05 02:40:43;;;;;;;12.23;10.10;;;15.10;99.90;;;;;;5026386;28;20080;-76
2022/10/05 02:43:44;;;;;;;13.88;10.10;;;15.10;99.90;;;;;;5006912;28;20049;-77
2022/10/05 02:46:35;;;;;;;13.95;10.20;;;15.10;99.90;;;;;;4994243;28;20100;-77
2022/10/05 02:49:16;;;;;;;13.38;10.10;;;15.10;99.90;;;;;;5005162;28;20046;-77
2022/10/05 02:52:02;;;;;;;15.27;10.27;;;15.10;99.90;;;;;;4992418;28;20129;-77
2022/10/05 02:54:52;;;;;;;12.25;10.13;;;15.10;99.90;;;;;;5011081;28;20064;-77
2022/10/05 02:57:37;;;;;;;12.57;10.57;;;15.00;99.90;;;;;;5016171;28;20045;-77
2022/10/05 03:00:14;;;;;;;13.20;10.60;;;15.00;99.90;;;;;;5009322;28;20447;-77
2022/10/05 03:02:48;;;;;;;15.15;10.30;;;15.00;99.90;;;;;;4988240;28;20049;-77
2022/10/05 03:05:45;;;;;;;13.93;10.38;;;14.90;99.90;;;;;;4992631;28;20050;-77
2022/10/05 03:08:13;;;;;;;;;;;15.00;99.90;;;;;;5013530;28;20042;-76
2022/10/05 03:10:51;;;;;;;13.75;10.02;;;14.90;99.90;;;;;;4995483;28;20384;-77
2022/10/05 03:13:48;;;;;;;15.02;9.43;;;14.90;99.90;;;;;;5005062;28;20046;-77
2022/10/05 03:16:26;;;;;;;13.20;10.18;;;14.90;99.90;;;;;;5003672;28;20053;-76
2022/10/05 03:19:21;;;;;;;13.68;10.10;;;14.80;99.90;;;;;;5016227;28;20111;-77
2022/10/05 03:22:24;;;;;;;12.88;10.52;;;14.90;99.90;;;;;;4986488;28;20050;-77
2022/10/05 03:24:52;;;;;;;11.68;9.88;;;14.90;99.90;;;;;;5018558;28;20065;-77
2022/10/05 03:27:37;;;;;;;12.00;9.68;;;14.90;99.90;;;;;;5004952;28;20046;-76
2022/10/05 03:30:18;;;;;;;13.98;10.20;;;14.80;99.90;;;;;;4999540;28;20685;-78
2022/10/05 03:33:15;;;;;;;12.63;10.25;;;14.80;99.90;;;;;;5007738;28;20438;-77
2022/10/05 03:35:51;;;;;;;;;;;14.80;99.90;;;;;;4980671;28;20165;-77
2022/10/05 03:38:28;;;;;;;13.27;10.75;;;14.70;99.90;;;;;;5003846;28;20067;-77
2022/10/05 03:41:12;;;;;;;18.15;10.50;;;14.70;99.90;;;;;;5008630;28;20096;-77
2022/10/05 03:44:01;;;;;;;13.85;11.00;;;14.70;99.90;;;;;;5000610;28;20525;-77
2022/10/05 03:46:42;;;;;;;15.80;11.65;;;14.70;99.90;;;;;;5009880;28;20050;-77
2022/10/05 03:49:37;;;;;;;14.50;11.60;;;14.70;99.90;;;;;;5023999;28;20053;-76
2022/10/05 03:52:37;;;;;;;15.15;11.73;;;14.70;99.90;;;;;;5021648;28;20049;-76
2022/10/05 03:55:29;;;;;;;14.52;11.50;;;14.70;99.90;;;;;;4982340;28;20601;-76
2022/10/05 03:57:58;;;;;;;14.57;11.85;;;14.70;99.90;;;;;;5007797;28;20160;-76
2022/10/05 04:00:26;;;;;;;18.35;11.85;;;14.70;99.90;;;;;;5024795;28;20049;-76
2022/10/05 04:03:10;;;;;;;15.88;11.95;;;14.70;99.90;;;;;;5024916;28;20049;-77
2022/10/05 04:05:47;;;;;;;14.48;12.70;;;14.80;99.90;;;;;;5003284;28;20535;-78
2022/10/05 04:08:34;;;;;;;18.73;12.30;;;14.80;99.90;;;;;;5027178;28;20553;-77
2022/10/05 04:11:23;;;;;;;;;;;14.80;99.90;;;;;;5024941;28;20054;-78
2022/10/05 04:14:04;;;;;;;17.02;12.10;;;14.70;99.90;;;;;;5012046;28;20414;-77
2022/10/05 04:16:36;;;;;;;15.65;12.82;;;14.70;99.90;;;;;;5008285;28;20080;-75
2022/10/05 04:19:36;;;;;;;15.07;12.70;;;14.70;99.90;;;;;;5026985;28;20077;-77
2022/10/05 04:22:14;;;;;;;16.63;13.05;;;14.70;99.90;;;;;;5017563;28;20041;-76
2022/10/05 04:24:48;;;;;;;17.05;12.98;;;14.70;99.90;;;;;;5026543;28;20081;-77
2022/10/05 04:27:21;;;;;;;17.25;12.88;;;14.80;99.90;;;;;;5024841;28;20068;-77
2022/10/05 04:29:54;;;;;;;15.93;12.93;;;14.70;99.90;;;;;;5020530;28;20103;-77
2022/10/05 04:32:26;;;;;;;17.17;13.35;;;14.70;99.90;;;;;;5022337;28;20056;-76
2022/10/05 04:35:15;;;;;;;15.55;13.63;;;14.80;99.90;;;;;;5028282;28;20081;-76
2022/10/05 04:37:56;;;;;;;17.45;13.60;;;14.70;99.90;;;;;;5005602;28;20049;-75
2022/10/05 04:40:33;;;;;;;16.13;13.55;;;14.70;99.90;;;;;;5026917;28;20033;-75
2022/10/05 04:43:37;;;;;;;15.85;13.70;;;14.70;99.90;;;;;;5005190;28;20504;-75
2022/10/05 04:46:03;;;;;;;17.88;14.48;;;14.70;99.90;;;;;;4992227;28;20049;-75
2022/10/05 04:48:53;;;;;;;16.15;14.40;;;14.70;99.90;;;;;;5025583;28;20456;-75
2022/10/05 04:51:24;;;;;;;16.33;14.27;;;14.70;99.90;;;;;;5024097;28;20045;-75
2022/10/05 04:54:10;;;;;;;16.25;14.23;;;14.70;99.90;;;;;;5002152;28;20075;-74
2022/10/05 04:56:41;;;;;;;17.73;14.50;;;14.70;99.90;;;;;;4998339;28;20050;-75
2022/10/05 04:59:23;;;;;;;16.58;14.13;;;14.70;99.90;;;;;;5023592;28;20042;-75
2022/10/05 05:01:58;;;;;;;19.75;14.95;;;14.70;99.90;;;;;;5005017;28;20156;-76
2022/10/05 05:05:04;;;;;;;16.77;15.07;;;14.70;99.90;;;;;;5007663;28;20085;-75
2022/10/05 05:07:30;;;;;;;;;;;14.70;99.90;;;;;;4987180;28;20045;-75
2022/10/05 05:10:04;;;;;;;17.70;14.65;;;14.70;99.90;;;;;;5023703;28;19932;-75
2022/10/05 05:12:58;;;;;;;16.73;14.93;;;14.70;99.90;;;;;;5016939;28;20112;-75
2022/10/05 05:15:37;;;;;;;17.98;15.45;;;14.70;99.90;;;;;;5021637;28;20099;-75
2022/10/05 05:18:27;;;;;;;18.13;15.13;;;14.60;99.90;;;;;;5009538;28;20128;-75
2022/10/05 05:21:19;;;;;;;19.50;15.73;;;14.60;99.90;;;;;;5004998;28;20400;-75
2022/10/05 05:23:56;;;;;;;18.63;15.65;;;14.60;99.90;;;;;;5024726;28;20521;-75
2022/10/05 05:26:24;;;;;;;19.98;15.43;;;14.60;99.90;;;;;;5008772;28;20064;-75
2022/10/05 05:28:57;;;;;;;18.20;15.02;;;14.60;99.90;;;;;;5021995;28;20045;-75
2022/10/05 05:31:31;;;;;;;18.20;16.17;;;14.60;99.90;;;;;;5011081;28;20411;-74
2022/10/05 05:34:31;;;;;;;21.38;16.70;;;14.60;99.90;;;;;;5023016;28;20045;-75
2022/10/05 05:37:05;;;;;;;19.48;16.40;;;14.60;99.90;;;;;;5021347;28;20046;-76
2022/10/05 05:39:49;;;;;;;21.58;17.63;;;14.60;99.90;;;;;;5016663;28;20038;-77
2022/10/05 05:42:47;;;;;;;19.98;16.73;;;14.60;99.90;;;;;;5006612;28;20056;-82
2022/10/05 05:45:29;;;;;;;19.40;15.18;;;14.60;99.90;;;;;;5015639;28;20088;-76
2022/10/05 05:47:58;;;;;;;18.75;16.35;;;14.60;99.90;;;;;;5019141;28;20741;-77
2022/10/05 05:50:32;;;;;;;20.73;16.27;;;14.60;99.90;;;;;;5006642;28;20045;-76
2022/10/05 05:53:10;;;;;;;17.88;15.98;;;14.60;99.90;;;;;;5023089;28;20744;-75
2022/10/05 05:55:43;;;;;;;21.27;16.45;;;14.60;99.90;;;;;;5024088;28;20049;-76
2022/10/05 05:58:15;;;;;;;17.67;15.38;;;14.70;99.90;;;;;;5025347;28;20041;-77
2022/10/05 06:00:47;;;;;;;20.10;15.65;;;14.60;99.90;;;;;;5007321;28;20077;-76
2022/10/05 06:03:24;;;;;;;19.52;16.27;;;14.60;99.90;;;;;;5003844;28;20045;-75
2022/10/05 06:05:56;;;;;;;19.67;16.40;;;14.60;99.90;;;;;;5023967;28;20416;-76
2022/10/05 06:08:44;;;;;;;18.75;16.08;;;14.60;99.90;;;;;;5021275;28;20041;-76
2022/10/05 06:11:42;;;;;;;17.38;15.50;;;14.60;99.90;;;;;;5007081;28;20061;-75
2022/10/05 06:14:21;;;;;;;18.75;15.85;;;14.60;99.90;;;;;;5023750;28;20053;-75
2022/10/05 06:16:56;;;;;;;17.10;15.27;;;14.60;99.90;;;;;;4998896;28;20049;-75
2022/10/05 06:19:25;;;;;;;18.60;16.65;;;14.70;99.90;;;;;;5001700;28;20045;-75
2022/10/05 06:22:03;;;;;;;18.80;16.88;;;14.60;99.90;;;;;;5004298;28;20046;-75
2022/10/05 06:24:33;;;;;;;19.75;16.08;;;14.70;99.90;;;;;;5009819;28;20099;-75
2022/10/05 06:27:21;;;;;;;18.23;15.77;;;14.70;99.90;;;;;;5011109;28;20041;-76
2022/10/05 06:30:30;;;;;;;17.27;15.48;;;14.70;99.90;;;;;;5001049;28;20041;-75
2022/10/05 06:33:23;;;;;;;17.33;15.52;;;14.70;99.90;;;;;;4946916;28;20394;-76
2022/10/05 06:36:21;;;;;;;17.48;15.55;;;14.70;99.90;;;;;;4926621;29;20059;-76
2022/10/05 06:39:20;;;;;;;17.23;15.20;;;14.70;99.90;;;;;;4983141;28;20054;-76
2022/10/05 06:42:12;;;;;;;16.65;14.55;;;14.70;99.90;;;;;;5023669;28;20507;-76
2022/10/05 06:45:04;;;;;;;16.10;14.40;;;14.80;99.90;;;;;;4999401;28;20049;-76
2022/10/05 06:47:48;;;;;;;16.02;14.27;;;14.80;99.90;;;;;;5008977;28;20057;-73
2022/10/05 06:50:53;;;;;;;16.13;14.30;;;14.80;99.90;;;;;;5010509;28;20049;-73
2022/10/05 06:53:19;;;;;;;16.85;13.95;;;14.80;99.90;;;;;;4912379;29;20044;-74
2022/10/05 06:55:54;;;;;;;15.98;13.38;;;14.80;99.90;;;;;;5002583;28;20103;-74
2022/10/05 06:58:46;;;;;;;16.48;13.50;;;14.80;99.90;;;;;;5024183;28;20040;-73
2022/10/05 07:01:36;;;;;;;18.30;13.30;;;14.90;99.90;;;;;;4982530;28;20570;-73
2022/10/05 07:04:35;;;;;;;15.20;13.43;;;14.90;99.90;;;;;;5027655;28;20124;-73
2022/10/05 07:07:22;;;;;;;14.93;13.30;;;14.80;99.90;;;;;;5024035;28;20091;-82
2022/10/05 07:09:48;;;;;;;;;;;14.90;99.90;;;;;;5027563;28;20056;-84
2022/10/05 07:12:31;;;;;;;14.57;12.85;;;14.90;99.90;;;;;;5022463;28;19921;-83
2022/10/05 07:15:23;;;;;;;13.63;12.23;;;14.80;99.90;;;;;;5022931;28;20083;-85
2022/10/05 07:17:49;;;;;;;17.45;12.57;;;14.90;99.90;;;;;;5017046;28;20045;-82
2022/10/05 07:20:40;;;;;;;14.50;12.85;;;14.90;99.90;;;;;;5027071;28;20056;-85
2022/10/05 07:23:31;;;;;;;15.77;12.60;;;14.90;99.90;;;;;;5011442;28;20057;-82
2022/10/05 07:26:13;;;;;;;14.35;12.32;;;14.90;99.90;;;;;;5022835;28;20061;-79
2022/10/05 07:29:03;;;;;;;16.77;13.02;;;14.90;99.90;;;;;;5019732;28;20045;-81
2022/10/05 07:31:48;;;;;;;14.77;13.20;;;14.90;99.90;;;;;;5026351;28;20119;-80
2022/10/05 07:34:51;;;;;;;14.57;12.60;;;15.00;99.90;;;;;;4999353;28;20128;-83
2022/10/05 07:37:54;;;;;;;16.13;11.93;;;15.00;99.90;;;;;;5024095;28;20049;-83
2022/10/05 07:40:30;;;;;;;17.42;12.82;;;15.00;99.90;;;;;;5008686;28;20389;-82
2022/10/05 07:42:56;;;;;;;13.57;11.93;;;15.00;99.90;;;;;;5021658;28;20053;-87
2022/10/05 07:45:32;;;;;;;13.93;11.90;;;15.00;99.90;;;;;;5020310;28;20047;-79
2022/10/05 07:48:11;;;;;;;16.05;12.50;;;14.90;99.90;;;;;;5008747;28;20142;-79
2022/10/05 07:50:48;;;;;;;16.30;12.60;;;15.00;99.90;;;;;;5025839;28;20041;-80
2022/10/05 07:53:30;;;;;;;13.20;11.85;;;15.00;99.90;;;;;;5009008;28;20406;-78
2022/10/05 07:56:02;;;;;;;19.40;13.05;;;15.10;99.90;;;;;;5026754;28;20069;-87
2022/10/05 07:58:45;;;;;;;13.55;12.15;;;15.10;99.90;;;;;;5026483;28;20054;-89
2022/10/05 08:01:36;;;;;;;16.33;12.50;;;15.10;99.90;;;;;;5021698;28;20041;-80
2022/10/05 08:04:18;;;;;;;13.50;11.57;;;15.10;99.90;;;;;;5019327;28;20056;-82
2022/10/05 08:06:55;;;;;;;13.45;12.02;;;15.10;99.90;;;;;;5012315;28;20431;-84
2022/10/05 08:09:49;;;;;;;12.37;11.07;;;15.20;99.90;;;;;;5021134;28;20045;-84
2022/10/05 08:12:33;;;;;;;16.52;12.27;;;15.20;99.90;;;;;;5008554;28;20055;-81
2022/10/05 08:15:19;;;;;;;12.63;10.43;;;15.20;99.90;;;;;;5027305;28;20075;-81
2022/10/05 08:18:00;;;;;;;14.57;10.85;;;15.30;99.90;;;;;;5024578;28;20485;-88
2022/10/05 08:20:40;;;;;;;11.60;10.40;;;15.30;99.90;;;;;;5028137;28;20049;-84
2022/10/05 08:23:27;;;;;;;13.95;10.80;;;15.30;99.90;;;;;;5027734;28;20121;-87
2022/10/05 08:25:52;;;;;;;;;;;15.40;99.90;;;;;;5031071;28;20050;-83
2022/10/05 08:28:40;;;;;;;11.40;10.27;;;15.40;99.90;;;;;;5027098;28;19925;-84
2022/10/05 08:31:21;;;;;;;10.90;9.75;;;15.40;99.90;;;;;;5010387;28;20042;-83
2022/10/05 08:34:25;;;;;;;11.20;10.00;;;15.40;99.90;;;;;;5025366;28;20192;-85
2022/10/05 08:37:00;;;;;;;11.57;10.10;;;15.50;99.90;;;;;;5001418;28;20053;-84
2022/10/05 08:39:30;;;;;;;12.40;10.48;;;15.50;99.90;;;;;;5027550;28;20381;-85
2022/10/05 08:42:28;;;;;;;13.65;10.63;;;15.60;99.90;;;;;;5026344;28;20124;-82
2022/10/05 08:45:31;;;;;;;13.30;10.15;;;15.60;99.90;;;;;;4967777;28;20083;-85
2022/10/05 08:48:15;;;;;;;11.15;9.95;;;15.60;99.90;;;;;;5025251;28;20625;-80
2022/10/05 08:51:07;;;;;;;10.90;9.57;;;15.60;99.90;;;;;;5026588;28;20053;-80
2022/10/05 08:54:20;;;;;;;9.73;8.68;;;15.60;99.90;;;;;;5024702;28;20092;-80
2022/10/05 08:56:48;;;;;;;9.85;8.40;;;15.70;99.90;;;;;;5024102;28;20049;-79
2022/10/05 08:59:35;;;;;;;11.30;7.78;;;15.70;99.90;;;;;;5026391;28;20037;-80
2022/10/05 09:02:20;;;;;;;8.70;7.05;;;15.90;99.90;;;;;;5027509;28;20053;-79
2022/10/05 09:04:57;;;;;;;8.63;7.25;;;15.90;99.90;;;;;;5005609;28;20050;-81
2022/10/05 09:07:45;;;;;;;8.45;6.78;;;16.00;99.90;;;;;;5025883;28;20112;-80
2022/10/05 09:10:35;;;;;;;10.20;6.47;;;16.00;99.90;;;;;;5027687;28;20046;-80
2022/10/05 09:13:24;;;;;;;6.97;5.88;;;16.10;99.90;;;;;;5022409;28;20052;-79
2022/10/05 09:16:07;;;;;;;8.40;6.07;;;16.10;99.90;;;;;;4992469;28;20193;-80
2022/10/05 09:19:09;;;;;;;6.47;5.30;;;16.20;99.90;;;;;;5020604;28;20041;-79
2022/10/05 09:22:13;;;;;;;7.47;5.40;;;16.30;99.90;;;;;;5020432;28;20065;-79
2022/10/05 09:24:51;;;;;;;6.97;5.75;;;16.30;99.90;;;;;;4989094;28;20076;-81
2022/10/05 09:27:26;;;;;;;8.25;5.57;;;16.40;99.90;;;;;;5020515;28;20103;-82
2022/10/05 09:30:20;;;;;;;6.93;5.13;;;16.40;99.90;;;;;;5020308;28;20049;-83
2022/10/05 09:33:12;;;;;;;7.57;4.75;;;16.40;99.90;;;;;;5022596;28;20461;-81
2022/10/05 09:36:15;;;;;;;7.82;5.28;;;16.40;99.90;;;;;;5023527;28;20108;-83
2022/10/05 09:38:53;;;;;;;6.55;4.95;;;16.50;99.90;;;;;;5024179;28;20048;-81
2022/10/05 09:41:30;;;;;;;7.72;5.07;;;16.50;99.90;;;;;;5027591;28;20041;-82
2022/10/05 09:44:32;;;;;;;7.07;5.00;;;16.50;99.90;;;;;;5027389;28;20045;-80
2022/10/05 09:47:30;;;;;;;8.70;5.63;;;16.60;99.90;;;;;;5003121;28;20084;-81
2022/10/05 09:50:26;;;;;;;7.40;5.93;;;16.60;99.90;;;;;;5001723;28;20080;-81
2022/10/05 09:53:37;;;;;;;6.20;5.60;;;16.60;99.90;;;;;;5022106;28;20037;-86
2022/10/05 09:56:58;;;;;;;9.75;5.70;;;16.50;99.90;;;;;;5004288;28;20044;-80
2022/10/05 09:59:51;;;;;;;8.30;5.93;;;16.50;99.90;;;;;;4976403;28;20058;-81
2022/10/05 10:02:51;;;;;;;8.05;6.22;;;16.60;99.90;;;;;;5025677;28;20059;-80
2022/10/05 10:05:32;;;;;;;6.68;5.78;;;16.60;99.90;;;;;;5031361;28;20049;-80
2022/10/05 10:08:24;;;;;;;7.28;6.00;;;16.60;99.90;;;;;;5033552;28;20049;-80
2022/10/05 10:11:14;;;;;;;7.03;5.95;;;16.60;99.90;;;;;;5030697;28;20077;-81
2022/10/05 10:14:07;;;;;;;7.53;6.28;;;16.60;99.90;;;;;;5027838;28;20412;-81
2022/10/05 10:16:55;;;;;;;7.82;5.82;;;16.70;99.90;;;;;;5028710;28;20486;-81
2022/10/05 10:19:29;;;;;;;9.02;6.20;;;16.70;99.90;;;;;;5015216;28;20099;-80
2022/10/05 10:22:32;;;;;;;6.38;5.40;;;16.70;99.90;;;;;;5009265;28;20050;-78
2022/10/05 10:25:37;;;;;;;9.95;6.18;;;16.70;99.90;;;;;;5017756;28;20065;-77
2022/10/05 10:28:45;;;;;;;6.55;5.88;;;16.70;99.90;;;;;;5009159;28;20060;-77
2022/10/05 10:31:37;;;;;;;6.20;5.10;;;16.70;99.90;;;;;;5026835;28;20046;-80
2022/10/05 10:34:21;;;;;;;6.75;5.22;;;16.70;99.90;;;;;;5010315;28;20063;-80
2022/10/05 10:36:58;;;;;;;5.50;4.40;;;16.70;99.90;;;;;;5007084;28;20056;-80
2022/10/05 10:39:46;;;;;;;7.15;4.40;;;16.70;99.90;;;;;;5010842;28;20048;-81
2022/10/05 10:42:25;;;;;;;7.13;4.07;;;16.70;99.90;;;;;;5006255;28;20435;-83
2022/10/05 10:45:41;;;;;;;9.40;4.50;;;16.70;99.90;;;;;;4996417;28;20548;-78
2022/10/05 10:48:30;;;;;;;7.07;4.25;;;16.70;99.90;;;;;;4948705;28;20050;-82
2022/10/05 10:51:10;;;;;;;6.30;4.60;;;16.70;99.90;;;;;;4946218;28;20337;-80
2022/10/05 10:54:11;;;;;;;7.32;4.10;;;16.70;99.90;;;;;;4995350;28;20066;-75
2022/10/05 10:57:10;;;;;;;9.05;4.72;;;16.80;99.90;;;;;;5017667;28;20067;-78
2022/10/05 10:59:51;;;;;;;8.50;4.57;;;16.80;99.90;;;;;;5000557;28;20060;-77
2022/10/05 11:02:48;;;;;;;8.35;4.57;;;16.80;99.90;;;;;;5025978;28;20045;-83
2022/10/05 11:05:28;;;;;;;5.97;5.00;;;16.90;99.90;;;;;;5018500;28;20678;-82
2022/10/05 11:08:31;;;;;;;6.75;5.30;;;17.00;99.90;;;;;;5027794;28;20085;-85
2022/10/05 11:11:32;;;;;;;7.93;5.07;;;17.00;99.90;;;;;;5025906;28;20049;-83
2022/10/05 11:14:03;;;;;;;10.65;4.82;;;17.10;99.90;;;;;;5004644;28;20057;-85
2022/10/05 11:16:53;;;;;;;7.72;5.20;;;17.10;99.90;;;;;;5022276;28;20054;-82
2022/10/05 11:19:52;;;;;;;8.07;4.95;;;17.20;99.90;;;;;;5008529;28;20049;-83
2022/10/05 11:22:54;;;;;;;7.82;5.05;;;17.20;99.90;;;;;;5018458;28;20046;-84
2022/10/05 11:25:44;;;;;;;5.63;4.68;;;17.30;99.90;;;;;;5004495;28;20060;-84
2022/10/05 11:28:37;;;;;;;9.48;4.85;;;17.30;99.90;;;;;;5002679;28;20135;-84
2022/10/05 11:31:15;;;;;;;7.63;4.95;;;17.40;99.90;;;;;;5028942;28;20049;-84
2022/10/05 11:34:05;;;;;;;11.82;6.10;;;17.50;99.90;;;;;;5026436;28;20636;-84
2022/10/05 11:37:00;;;;;;;8.73;4.88;;;17.50;99.90;;;;;;5006190;28;20043;-79
2022/10/05 11:39:54;;;;;;;6.72;4.18;;;17.60;99.90;;;;;;5016099;28;20140;-76
2022/10/05 11:42:40;;;;;;;7.00;4.63;;;17.70;99.90;;;;;;5017549;28;20049;-76
2022/10/05 11:45:20;;;;;;;7.63;4.38;;;17.80;99.90;;;;;;5008678;28;20400;-82
2022/10/05 11:48:24;;;;;;;7.47;4.60;;;17.80;99.90;;;;;;5024031;28;20069;-78
2022/10/05 11:51:13;;;;;;;8.00;4.57;;;17.90;99.90;;;;;;4995946;28;20454;-86
2022/10/05 11:53:52;;;;;;;11.10;4.38;;;17.90;99.90;;;;;;5009269;28;20048;-79
2022/10/05 11:56:25;;;;;;;9.68;4.78;;;17.90;99.90;;;;;;5027720;28;20612;-80
2022/10/05 11:59:13;;;;;;;8.20;4.45;;;17.90;99.90;;;;;;5011103;28;20068;-75
2022/10/05 12:02:03;;;;;;;9.50;4.50;;;18.00;99.90;;;;;;5025730;28;20037;-75
2022/10/05 12:04:55;;;;;;;8.15;4.28;;;17.90;99.90;;;;;;5026375;28;20049;-79
2022/10/05 12:07:39;;;;;;;10.30;4.35;;;17.90;99.90;;;;;;4990563;28;20050;-79
2022/10/05 12:10:38;;;;;;;9.15;4.20;;;17.90;99.90;;;;;;5021009;28;20116;-79
2022/10/05 12:13:22;;;;;;;6.03;3.65;;;17.90;99.90;;;;;;5023493;28;20049;-79
2022/10/05 12:16:00;;;;;;;6.40;4.28;;;17.90;99.90;;;;;;5009867;28;20076;-79
2022/10/05 12:18:29;;;;;;;7.35;4.15;;;17.90;99.90;;;;;;5010478;28;20099;-79
2022/10/05 12:20:57;;;;;;;5.68;4.18;;;17.80;99.90;;;;;;5005761;28;20404;-79
2022/10/05 12:23:42;;;;;;;6.30;4.55;;;17.80;99.90;;;;;;5028853;28;20124;-79
2022/10/05 12:26:24;;;;;;;8.38;4.22;;;17.80;99.90;;;;;;5011238;28;20064;-79
2022/10/05 12:29:12;;;;;;;5.05;4.05;;;17.80;99.90;;;;;;5027772;28;20048;-79
2022/10/05 12:31:54;;;;;;;9.20;4.05;;;17.70;99.90;;;;;;5011291;28;20045;-79
2022/10/05 12:34:35;;;;;;;7.10;4.60;;;17.70;99.90;;;;;;5011349;28;20053;-79
2022/10/05 12:37:28;;;;;;;7.80;4.40;;;17.70;99.90;;;;;;5027751;28;20079;-79
2022/10/05 12:40:16;;;;;;;7.22;4.70;;;17.70;99.90;;;;;;5028640;28;20049;-79
2022/10/05 12:42:50;;;;;;;7.85;4.32;;;17.70;99.90;;;;;;5025916;28;20037;-79
2022/10/05 12:45:44;;;;;;;7.53;4.47;;;17.70;99.90;;;;;;5027333;28;20477;-79
2022/10/05 12:48:51;;;;;;;7.68;3.97;;;17.70;99.90;;;;;;4988854;28;20096;-80
2022/10/05 12:51:22;;;;;;;;;;;17.70;99.90;;;;;;5008561;28;20061;-79
2022/10/05 12:53:54;;;;;;;5.60;3.78;;;17.60;99.90;;;;;;5010505;28;19933;-79
2022/10/05 12:56:49;;;;;;;8.80;4.18;;;17.70;99.90;;;;;;5027908;28;20041;-79
2022/10/05 12:59:30;;;;;;;6.05;4.20;;;17.70;99.90;;;;;;5027404;28;20045;-80
2022/10/05 13:02:18;;;;;;;5.97;3.70;;;17.70;99.90;;;;;;5010503;28;20041;-80
2022/10/05 13:05:07;;;;;;;7.07;3.83;;;17.70;99.90;;;;;;4998203;28;20132;-79
2022/10/05 13:07:45;;;;;;;8.82;4.00;;;17.80;99.90;;;;;;5008705;28;20042;-79
2022/10/05 13:10:32;;;;;;;6.05;3.78;;;17.80;99.90;;;;;;4991138;28;20050;-79
2022/10/05 13:13:19;;;;;;;7.28;3.97;;;17.90;99.90;;;;;;5008102;28;20093;-79
2022/10/05 13:16:04;;;;;;;;;;;17.90;99.90;;;;;;5006479;28;20049;-80
2022/10/05 13:18:54;;;;;;;6.75;4.00;;;17.90;99.90;;;;;;5004710;28;19925;-79
2022/10/05 13:21:29;;;;;;;5.68;3.72;;;18.00;99.90;;;;;;5010544;28;20053;-80
2022/10/05 13:24:08;;;;;;;5.07;3.65;;;18.00;99.90;;;;;;5007329;28;20045;-80
2022/10/05 13:26:59;;;;;;;5.07;3.70;;;18.00;99.90;;;;;;5009960;28;20049;-80
2022/10/05 13:29:41;;;;;;;9.95;4.50;;;18.10;99.90;;;;;;5008482;28;20048;-79
2022/10/05 13:32:16;;;;;;;7.38;4.20;;;18.10;99.90;;;;;;5028569;28;20140;-79
2022/10/05 13:35:04;;;;;;;9.90;4.25;;;18.10;99.90;;;;;;5034163;28;20838;-77
2022/10/05 13:37:38;;;;;;;6.60;3.95;;;18.20;99.90;;;;;;5030575;28;20515;-77
2022/10/05 13:40:16;;;;;;;10.15;3.60;;;18.20;99.90;;;;;;5011863;28;20479;-80
2022/10/05 13:42:41;;;;;;;6.75;3.67;;;18.30;99.90;;;;;;5015409;28;20047;-82
2022/10/05 13:45:22;;;;;;;6.55;3.70;;;18.30;99.90;;;;;;5022169;28;20775;-78
2022/10/05 13:47:53;;;;;;;5.95;3.78;;;18.40;99.90;;;;;;5015821;28;20088;-77
2022/10/05 13:50:37;;;;;;;4.93;3.70;;;18.40;99.90;;;;;;5029874;28;20053;-81
2022/10/05 13:53:24;;;;;;;6.15;3.40;;;18.40;99.90;;;;;;5030705;28;20052;-83
2022/10/05 13:56:22;;;;;;;7.22;3.80;;;18.50;99.90;;;;;;5010488;28;20060;-78
2022/10/05 13:59:01;;;;;;;7.50;3.92;;;18.50;99.90;;;;;;5033577;28;20045;-75
2022/10/05 14:01:40;;;;;;;9.52;3.83;;;18.50;99.90;;;;;;5031835;28;20045;-78
2022/10/05 14:04:18;;;;;;;6.63;3.40;;;18.50;99.90;;;;;;5014720;28;20542;-78